sensor_id;sensor_type;location;lat;lon;timestamp;P1;durP1;ratioP1;P2;durP2;ratioP2
3916;SDS011;1973;50.518;7.318;2023-05-16T00:00:45;9.63;;;7.67;;
3916;SDS011;1973;50.518;7.318;2023-05-16T00:03:12;15.47;;;8.70;;
3916;SDS011;1973;50.518;7.318;2023-05-16T00:05:39;12.90;;;8.93;;
3916;SDS011;1973;50.518;7.318;2023-05-16T00:08:06;10.90;;;8.53;;
3916;SDS011;1973;50.518;7.318;2023-05-16T00:10:32;15.20;;;8.87;;
3916;SDS011;1973;50.518;7.318;2023-05-16T00:12:58;11.33;;;9.60;;
3916;SDS011;1973;50.518;7.318;2023-05-16T00:15:27;15.93;;;9.63;;
3916;SDS011;1973;50.518;7.318;2023-05-16T00:17:55;12.90;;;9.60;;
3916;SDS011;1973;50.518;7.318;2023-05-16T00:20:25;12.97;;;9.10;;
3916;SDS011;1973;50.518;7.318;2023-05-16T00:22:53;11.90;;;8.47;;
3916;SDS011;1973;50.518;7.318;2023-05-16T00:25:20;15.50;;;8.40;;
3916;SDS011;1973;50.518;7.318;2023-05-16T00:27:47;12.07;;;8.50;;
3916;SDS011;1973;50.518;7.318;2023-05-16T00:30:13;12.77;;;7.90;;
3916;SDS011;1973;50.518;7.318;2023-05-16T00:32:40;10.77;;;8.17;;
3916;SDS011;1973;50.518;7.318;2023-05-16T00:35:06;13.10;;;8.00;;
3916;SDS011;1973;50.518;7.318;2023-05-16T00:37:36;9.70;;;6.93;;
3916;SDS011;1973;50.518;7.318;2023-05-16T00:40:03;9.87;;;7.13;;
3916;SDS011;1973;50.518;7.318;2023-05-16T00:42:30;9.10;;;7.03;;
3916;SDS011;1973;50.518;7.318;2023-05-16T00:44:57;9.40;;;6.70;;
3916;SDS011;1973;50.518;7.318;2023-05-16T00:47:24;10.07;;;6.60;;
3916;SDS011;1973;50.518;7.318;2023-05-16T00:49:50;11.67;;;5.60;;
3916;SDS011;1973;50.518;7.318;2023-05-16T00:52:17;7.07;;;5.63;;
3916;SDS011;1973;50.518;7.318;2023-05-16T00:54:43;9.37;;;5.97;;
3916;SDS011;1973;50.518;7.318;2023-05-16T00:57:10;7.57;;;6.10;;
3916;SDS011;1973;50.518;7.318;2023-05-16T00:59:36;5.87;;;4.63;;
3916;SDS011;1973;50.518;7.318;2023-05-16T01:02:03;6.47;;;5.03;;
3916;SDS011;1973;50.518;7.318;2023-05-16T01:04:30;7.17;;;5.17;;
3916;SDS011;1973;50.518;7.318;2023-05-16T01:06:57;8.87;;;6.17;;
3916;SDS011;1973;50.518;7.318;2023-05-16T01:09:24;10.20;;;5.20;;
3916;SDS011;1973;50.518;7.318;2023-05-16T01:11:51;8.40;;;5.37;;
3916;SDS011;1973;50.518;7.318;2023-05-16T01:14:36;5.57;;;4.57;;
3916;SDS011;1973;50.518;7.318;2023-05-16T01:17:21;7.77;;;4.73;;
3916;SDS011;1973;50.518;7.318;2023-05-16T01:25:30;5.33;;;4.37;;
3916;SDS011;1973;50.518;7.318;2023-05-16T01:28:12;5.77;;;4.37;;
3916;SDS011;1973;50.518;7.318;2023-05-16T01:30:40;5.63;;;4.10;;
3916;SDS011;1973;50.518;7.318;2023-05-16T01:33:07;6.20;;;4.30;;
3916;SDS011;1973;50.518;7.318;2023-05-16T01:35:39;5.40;;;3.93;;
3916;SDS011;1973;50.518;7.318;2023-05-16T01:38:15;5.63;;;3.87;;
3916;SDS011;1973;50.518;7.318;2023-05-16T01:41:02;4.33;;;2.90;;
3916;SDS011;1973;50.518;7.318;2023-05-16T01:43:36;4.37;;;3.20;;
3916;SDS011;1973;50.518;7.318;2023-05-16T01:46:14;4.70;;;3.70;;
3916;SDS011;1973;50.518;7.318;2023-05-16T01:48:49;3.83;;;3.10;;
3916;SDS011;1973;50.518;7.318;2023-05-16T01:51:20;3.97;;;2.63;;
3916;SDS011;1973;50.518;7.318;2023-05-16T01:53:48;4.63;;;2.73;;
3916;SDS011;1973;50.518;7.318;2023-05-16T01:56:15;5.20;;;2.70;;
3916;SDS011;1973;50.518;7.318;2023-05-16T01:58:42;4.07;;;2.90;;
3916;SDS011;1973;50.518;7.318;2023-05-16T02:01:12;3.67;;;3.27;;
3916;SDS011;1973;50.518;7.318;2023-05-16T02:03:38;3.50;;;2.20;;
3916;SDS011;1973;50.518;7.318;2023-05-16T02:06:05;10.30;;;2.97;;
3916;SDS011;1973;50.518;7.318;2023-05-16T02:08:32;3.30;;;2.47;;
3916;SDS011;1973;50.518;7.318;2023-05-16T02:10:59;4.60;;;3.30;;
3916;SDS011;1973;50.518;7.318;2023-05-16T02:13:25;3.57;;;2.70;;
3916;SDS011;1973;50.518;7.318;2023-05-16T02:15:52;4.17;;;3.00;;
3916;SDS011;1973;50.518;7.318;2023-05-16T02:18:18;3.53;;;3.20;;
3916;SDS011;1973;50.518;7.318;2023-05-16T02:20:45;3.63;;;3.30;;
3916;SDS011;1973;50.518;7.318;2023-05-16T02:23:11;3.43;;;3.00;;
3916;SDS011;1973;50.518;7.318;2023-05-16T02:25:38;3.60;;;3.23;;
3916;SDS011;1973;50.518;7.318;2023-05-16T02:28:04;5.00;;;3.20;;
3916;SDS011;1973;50.518;7.318;2023-05-16T02:30:31;4.37;;;3.77;;
3916;SDS011;1973;50.518;7.318;2023-05-16T02:32:58;5.50;;;4.27;;
3916;SDS011;1973;50.518;7.318;2023-05-16T02:35:24;6.73;;;4.80;;
3916;SDS011;1973;50.518;7.318;2023-05-16T02:37:52;5.13;;;4.63;;
3916;SDS011;1973;50.518;7.318;2023-05-16T02:40:18;5.67;;;5.13;;
3916;SDS011;1973;50.518;7.318;2023-05-16T02:42:44;6.60;;;5.67;;
3916;SDS011;1973;50.518;7.318;2023-05-16T02:45:11;7.60;;;6.00;;
3916;SDS011;1973;50.518;7.318;2023-05-16T02:47:37;5.77;;;5.20;;
3916;SDS011;1973;50.518;7.318;2023-05-16T02:50:04;7.23;;;6.53;;
3916;SDS011;1973;50.518;7.318;2023-05-16T02:52:31;6.13;;;5.53;;
3916;SDS011;1973;50.518;7.318;2023-05-16T02:54:57;7.60;;;6.03;;
3916;SDS011;1973;50.518;7.318;2023-05-16T02:57:44;6.97;;;6.23;;
3916;SDS011;1973;50.518;7.318;2023-05-16T03:00:10;7.90;;;6.83;;
3916;SDS011;1973;50.518;7.318;2023-05-16T03:02:37;7.73;;;6.80;;
3916;SDS011;1973;50.518;7.318;2023-05-16T03:05:04;7.23;;;6.53;;
3916;SDS011;1973;50.518;7.318;2023-05-16T03:07:31;9.00;;;7.40;;
3916;SDS011;1973;50.518;7.318;2023-05-16T03:09:58;8.47;;;7.10;;
3916;SDS011;1973;50.518;7.318;2023-05-16T03:12:24;9.13;;;6.57;;
3916;SDS011;1973;50.518;7.318;2023-05-16T03:14:51;6.83;;;6.17;;
3916;SDS011;1973;50.518;7.318;2023-05-16T03:17:17;6.93;;;6.17;;
3916;SDS011;1973;50.518;7.318;2023-05-16T03:19:44;7.20;;;6.40;;
3916;SDS011;1973;50.518;7.318;2023-05-16T03:22:10;7.03;;;6.33;;
3916;SDS011;1973;50.518;7.318;2023-05-16T03:24:37;8.03;;;7.23;;
3916;SDS011;1973;50.518;7.318;2023-05-16T03:27:03;9.80;;;8.40;;
3916;SDS011;1973;50.518;7.318;2023-05-16T03:29:30;10.77;;;9.07;;
3916;SDS011;1973;50.518;7.318;2023-05-16T03:31:57;10.20;;;8.60;;
3916;SDS011;1973;50.518;7.318;2023-05-16T03:34:23;9.70;;;8.10;;
3916;SDS011;1973;50.518;7.318;2023-05-16T03:36:50;10.10;;;8.47;;
3916;SDS011;1973;50.518;7.318;2023-05-16T03:39:17;9.80;;;8.80;;
3916;SDS011;1973;50.518;7.318;2023-05-16T03:41:44;10.00;;;8.50;;
3916;SDS011;1973;50.518;7.318;2023-05-16T03:44:10;9.83;;;8.80;;
3916;SDS011;1973;50.518;7.318;2023-05-16T03:46:37;11.60;;;9.77;;
3916;SDS011;1973;50.518;7.318;2023-05-16T03:49:03;11.70;;;10.60;;
3916;SDS011;1973;50.518;7.318;2023-05-16T03:51:30;10.30;;;9.27;;
3916;SDS011;1973;50.518;7.318;2023-05-16T03:53:56;10.33;;;8.87;;
3916;SDS011;1973;50.518;7.318;2023-05-16T03:56:23;9.90;;;8.90;;
3916;SDS011;1973;50.518;7.318;2023-05-16T03:58:49;9.53;;;8.53;;
3916;SDS011;1973;50.518;7.318;2023-05-16T04:01:16;9.50;;;8.13;;
3916;SDS011;1973;50.518;7.318;2023-05-16T04:03:42;10.20;;;8.60;;
3916;SDS011;1973;50.518;7.318;2023-05-16T04:06:08;8.37;;;7.57;;
3916;SDS011;1973;50.518;7.318;2023-05-16T04:08:35;8.83;;;6.20;;
3916;SDS011;1973;50.518;7.318;2023-05-16T04:11:02;6.13;;;5.53;;
3916;SDS011;1973;50.518;7.318;2023-05-16T04:13:29;10.83;;;6.63;;
3916;SDS011;1973;50.518;7.318;2023-05-16T04:15:56;7.83;;;5.87;;
3916;SDS011;1973;50.518;7.318;2023-05-16T04:18:22;7.77;;;5.40;;
3916;SDS011;1973;50.518;7.318;2023-05-16T04:20:49;7.40;;;5.70;;
3916;SDS011;1973;50.518;7.318;2023-05-16T04:23:15;8.10;;;5.87;;
3916;SDS011;1973;50.518;7.318;2023-05-16T04:25:42;6.97;;;5.50;;
3916;SDS011;1973;50.518;7.318;2023-05-16T04:28:08;4.97;;;4.50;;
3916;SDS011;1973;50.518;7.318;2023-05-16T04:30:35;6.10;;;4.60;;
3916;SDS011;1973;50.518;7.318;2023-05-16T04:33:02;7.47;;;4.93;;
3916;SDS011;1973;50.518;7.318;2023-05-16T04:35:29;6.73;;;4.67;;
3916;SDS011;1973;50.518;7.318;2023-05-16T04:37:56;6.23;;;4.47;;
3916;SDS011;1973;50.518;7.318;2023-05-16T04:40:22;7.00;;;4.87;;
3916;SDS011;1973;50.518;7.318;2023-05-16T04:42:50;6.50;;;4.87;;
3916;SDS011;1973;50.518;7.318;2023-05-16T04:45:18;6.13;;;3.83;;
3916;SDS011;1973;50.518;7.318;2023-05-16T04:47:44;6.07;;;4.40;;
3916;SDS011;1973;50.518;7.318;2023-05-16T04:50:11;5.60;;;4.90;;
3916;SDS011;1973;50.518;7.318;2023-05-16T04:52:38;6.93;;;3.90;;
3916;SDS011;1973;50.518;7.318;2023-05-16T04:55:04;10.23;;;4.40;;
3916;SDS011;1973;50.518;7.318;2023-05-16T04:57:31;9.73;;;4.40;;
3916;SDS011;1973;50.518;7.318;2023-05-16T04:59:58;7.17;;;3.87;;
3916;SDS011;1973;50.518;7.318;2023-05-16T05:02:24;7.37;;;3.43;;
3916;SDS011;1973;50.518;7.318;2023-05-16T05:04:50;4.90;;;3.53;;
3916;SDS011;1973;50.518;7.318;2023-05-16T05:07:17;4.97;;;3.90;;
3916;SDS011;1973;50.518;7.318;2023-05-16T05:09:43;6.50;;;4.00;;
3916;SDS011;1973;50.518;7.318;2023-05-16T05:12:10;4.80;;;3.60;;
3916;SDS011;1973;50.518;7.318;2023-05-16T05:14:36;5.10;;;2.80;;
3916;SDS011;1973;50.518;7.318;2023-05-16T05:17:03;5.27;;;3.40;;
3916;SDS011;1973;50.518;7.318;2023-05-16T05:19:29;4.83;;;3.17;;
3916;SDS011;1973;50.518;7.318;2023-05-16T05:21:56;5.90;;;2.80;;
3916;SDS011;1973;50.518;7.318;2023-05-16T05:24:23;5.10;;;3.03;;
3916;SDS011;1973;50.518;7.318;2023-05-16T05:26:49;5.43;;;3.20;;
3916;SDS011;1973;50.518;7.318;2023-05-16T05:29:15;7.70;;;3.80;;
3916;SDS011;1973;50.518;7.318;2023-05-16T05:31:42;6.73;;;3.03;;
3916;SDS011;1973;50.518;7.318;2023-05-16T05:34:08;5.40;;;2.90;;
3916;SDS011;1973;50.518;7.318;2023-05-16T05:36:35;6.80;;;3.10;;
3916;SDS011;1973;50.518;7.318;2023-05-16T05:39:01;5.30;;;3.30;;
3916;SDS011;1973;50.518;7.318;2023-05-16T05:41:28;6.07;;;3.53;;
3916;SDS011;1973;50.518;7.318;2023-05-16T05:43:55;9.80;;;4.37;;
3916;SDS011;1973;50.518;7.318;2023-05-16T05:46:23;4.80;;;4.00;;
3916;SDS011;1973;50.518;7.318;2023-05-16T05:48:50;10.60;;;4.73;;
3916;SDS011;1973;50.518;7.318;2023-05-16T05:51:17;9.40;;;5.07;;
3916;SDS011;1973;50.518;7.318;2023-05-16T05:53:44;9.33;;;4.77;;
3916;SDS011;1973;50.518;7.318;2023-05-16T05:56:10;10.90;;;6.30;;
3916;SDS011;1973;50.518;7.318;2023-05-16T05:58:37;11.60;;;6.17;;
3916;SDS011;1973;50.518;7.318;2023-05-16T06:01:06;11.00;;;7.40;;
3916;SDS011;1973;50.518;7.318;2023-05-16T06:03:33;14.20;;;7.60;;
3916;SDS011;1973;50.518;7.318;2023-05-16T06:06:00;15.80;;;8.10;;
3916;SDS011;1973;50.518;7.318;2023-05-16T06:08:26;16.00;;;7.60;;
3916;SDS011;1973;50.518;7.318;2023-05-16T06:10:53;11.03;;;8.00;;
3916;SDS011;1973;50.518;7.318;2023-05-16T06:13:19;14.20;;;7.90;;
3916;SDS011;1973;50.518;7.318;2023-05-16T06:15:52;12.77;;;8.20;;
3916;SDS011;1973;50.518;7.318;2023-05-16T06:18:19;16.70;;;8.30;;
3916;SDS011;1973;50.518;7.318;2023-05-16T06:20:46;21.60;;;10.43;;
3916;SDS011;1973;50.518;7.318;2023-05-16T06:23:12;10.97;;;8.10;;
3916;SDS011;1973;50.518;7.318;2023-05-16T06:25:39;18.43;;;7.77;;
3916;SDS011;1973;50.518;7.318;2023-05-16T06:28:05;19.70;;;7.77;;
3916;SDS011;1973;50.518;7.318;2023-05-16T06:30:33;16.10;;;6.53;;
3916;SDS011;1973;50.518;7.318;2023-05-16T06:33:00;12.53;;;6.90;;
3916;SDS011;1973;50.518;7.318;2023-05-16T06:35:26;12.37;;;6.60;;
3916;SDS011;1973;50.518;7.318;2023-05-16T06:37:53;12.10;;;6.97;;
3916;SDS011;1973;50.518;7.318;2023-05-16T06:40:19;12.93;;;6.97;;
3916;SDS011;1973;50.518;7.318;2023-05-16T06:42:46;10.93;;;6.37;;
3916;SDS011;1973;50.518;7.318;2023-05-16T06:45:12;16.17;;;5.97;;
3916;SDS011;1973;50.518;7.318;2023-05-16T06:47:39;16.10;;;6.67;;
3916;SDS011;1973;50.518;7.318;2023-05-16T06:50:06;11.60;;;5.43;;
3916;SDS011;1973;50.518;7.318;2023-05-16T06:52:33;16.10;;;6.03;;
3916;SDS011;1973;50.518;7.318;2023-05-16T06:54:59;8.70;;;5.57;;
3916;SDS011;1973;50.518;7.318;2023-05-16T06:57:26;12.23;;;5.83;;
3916;SDS011;1973;50.518;7.318;2023-05-16T06:59:52;15.70;;;5.27;;
3916;SDS011;1973;50.518;7.318;2023-05-16T07:02:19;10.60;;;6.30;;
3916;SDS011;1973;50.518;7.318;2023-05-16T07:04:45;15.23;;;5.30;;
3916;SDS011;1973;50.518;7.318;2023-05-16T07:07:12;11.30;;;4.70;;
3916;SDS011;1973;50.518;7.318;2023-05-16T07:09:39;9.17;;;4.93;;
3916;SDS011;1973;50.518;7.318;2023-05-16T07:12:05;17.20;;;6.73;;
3916;SDS011;1973;50.518;7.318;2023-05-16T07:14:32;13.10;;;5.40;;
3916;SDS011;1973;50.518;7.318;2023-05-16T07:16:58;9.63;;;5.57;;
3916;SDS011;1973;50.518;7.318;2023-05-16T07:19:25;9.27;;;4.03;;
3916;SDS011;1973;50.518;7.318;2023-05-16T07:21:51;13.63;;;5.27;;
3916;SDS011;1973;50.518;7.318;2023-05-16T07:24:19;10.10;;;4.97;;
3916;SDS011;1973;50.518;7.318;2023-05-16T07:26:45;13.80;;;4.80;;
3916;SDS011;1973;50.518;7.318;2023-05-16T07:29:12;11.03;;;4.47;;
3916;SDS011;1973;50.518;7.318;2023-05-16T07:31:38;10.13;;;4.80;;
3916;SDS011;1973;50.518;7.318;2023-05-16T07:34:05;8.67;;;4.30;;
3916;SDS011;1973;50.518;7.318;2023-05-16T07:36:32;8.43;;;4.10;;
3916;SDS011;1973;50.518;7.318;2023-05-16T07:38:59;12.13;;;4.10;;
3916;SDS011;1973;50.518;7.318;2023-05-16T07:41:27;7.63;;;3.60;;
3916;SDS011;1973;50.518;7.318;2023-05-16T07:43:54;14.07;;;4.40;;
3916;SDS011;1973;50.518;7.318;2023-05-16T07:46:21;7.90;;;3.90;;
3916;SDS011;1973;50.518;7.318;2023-05-16T07:48:48;9.13;;;3.60;;
3916;SDS011;1973;50.518;7.318;2023-05-16T07:51:15;8.80;;;4.13;;
3916;SDS011;1973;50.518;7.318;2023-05-16T07:53:41;7.00;;;3.90;;
3916;SDS011;1973;50.518;7.318;2023-05-16T07:56:08;7.67;;;3.50;;
3916;SDS011;1973;50.518;7.318;2023-05-16T07:58:35;11.57;;;4.70;;
3916;SDS011;1973;50.518;7.318;2023-05-16T08:01:01;12.00;;;5.00;;
3916;SDS011;1973;50.518;7.318;2023-05-16T08:03:31;11.27;;;5.00;;
3916;SDS011;1973;50.518;7.318;2023-05-16T08:05:58;9.03;;;4.20;;
3916;SDS011;1973;50.518;7.318;2023-05-16T08:08:24;11.20;;;4.30;;
3916;SDS011;1973;50.518;7.318;2023-05-16T08:10:51;8.10;;;4.70;;
3916;SDS011;1973;50.518;7.318;2023-05-16T08:13:17;12.33;;;3.70;;
3916;SDS011;1973;50.518;7.318;2023-05-16T08:15:44;12.10;;;3.90;;
3916;SDS011;1973;50.518;7.318;2023-05-16T08:18:12;12.67;;;4.23;;
3916;SDS011;1973;50.518;7.318;2023-05-16T08:20:40;9.10;;;4.50;;
3916;SDS011;1973;50.518;7.318;2023-05-16T08:23:07;9.40;;;3.40;;
3916;SDS011;1973;50.518;7.318;2023-05-16T08:25:34;8.83;;;3.07;;
3916;SDS011;1973;50.518;7.318;2023-05-16T08:28:01;8.10;;;3.07;;
3916;SDS011;1973;50.518;7.318;2023-05-16T08:30:28;8.27;;;3.70;;
3916;SDS011;1973;50.518;7.318;2023-05-16T08:32:54;10.60;;;2.77;;
3916;SDS011;1973;50.518;7.318;2023-05-16T08:35:21;6.03;;;2.33;;
3916;SDS011;1973;50.518;7.318;2023-05-16T08:37:47;7.53;;;2.40;;
3916;SDS011;1973;50.518;7.318;2023-05-16T08:40:14;6.30;;;2.80;;
3916;SDS011;1973;50.518;7.318;2023-05-16T08:42:41;6.00;;;1.80;;
3916;SDS011;1973;50.518;7.318;2023-05-16T08:45:10;7.57;;;2.37;;
3916;SDS011;1973;50.518;7.318;2023-05-16T08:47:37;10.20;;;2.47;;
3916;SDS011;1973;50.518;7.318;2023-05-16T08:50:07;9.90;;;2.50;;
3916;SDS011;1973;50.518;7.318;2023-05-16T08:52:35;6.40;;;2.07;;
3916;SDS011;1973;50.518;7.318;2023-05-16T08:55:05;4.50;;;2.20;;
3916;SDS011;1973;50.518;7.318;2023-05-16T08:57:37;7.10;;;2.23;;
3916;SDS011;1973;50.518;7.318;2023-05-16T09:00:07;7.83;;;2.83;;
3916;SDS011;1973;50.518;7.318;2023-05-16T09:02:38;5.50;;;2.20;;
3916;SDS011;1973;50.518;7.318;2023-05-16T09:05:07;4.93;;;2.13;;
3916;SDS011;1973;50.518;7.318;2023-05-16T09:07:36;6.37;;;1.87;;
3916;SDS011;1973;50.518;7.318;2023-05-16T09:10:03;6.20;;;1.90;;
3916;SDS011;1973;50.518;7.318;2023-05-16T09:12:32;5.70;;;1.80;;
3916;SDS011;1973;50.518;7.318;2023-05-16T09:15:02;6.73;;;2.00;;
3916;SDS011;1973;50.518;7.318;2023-05-16T09:17:38;6.43;;;2.20;;
3916;SDS011;1973;50.518;7.318;2023-05-16T09:20:13;9.00;;;2.33;;
3916;SDS011;1973;50.518;7.318;2023-05-16T09:22:54;7.33;;;2.57;;
3916;SDS011;1973;50.518;7.318;2023-05-16T09:25:23;7.20;;;2.03;;
3916;SDS011;1973;50.518;7.318;2023-05-16T09:27:55;8.20;;;1.57;;
3916;SDS011;1973;50.518;7.318;2023-05-16T09:30:26;4.90;;;1.90;;
3916;SDS011;1973;50.518;7.318;2023-05-16T09:32:55;9.13;;;1.97;;
3916;SDS011;1973;50.518;7.318;2023-05-16T09:35:22;8.40;;;2.00;;
3916;SDS011;1973;50.518;7.318;2023-05-16T09:38:15;6.47;;;1.37;;
3916;SDS011;1973;50.518;7.318;2023-05-16T09:40:45;5.43;;;1.60;;
3916;SDS011;1973;50.518;7.318;2023-05-16T09:43:15;8.07;;;2.20;;
3916;SDS011;1973;50.518;7.318;2023-05-16T09:45:47;5.80;;;1.40;;
3916;SDS011;1973;50.518;7.318;2023-05-16T09:48:14;4.63;;;2.00;;
3916;SDS011;1973;50.518;7.318;2023-05-16T09:50:51;5.20;;;1.60;;
3916;SDS011;1973;50.518;7.318;2023-05-16T09:53:25;4.73;;;1.60;;
3916;SDS011;1973;50.518;7.318;2023-05-16T09:58:30;6.10;;;1.30;;
3916;SDS011;1973;50.518;7.318;2023-05-16T10:00:57;6.10;;;1.43;;
3916;SDS011;1973;50.518;7.318;2023-05-16T10:03:24;14.33;;;2.00;;
3916;SDS011;1973;50.518;7.318;2023-05-16T10:05:52;7.67;;;2.03;;
3916;SDS011;1973;50.518;7.318;2023-05-16T10:08:21;4.57;;;1.77;;
3916;SDS011;1973;50.518;7.318;2023-05-16T10:10:52;6.63;;;2.10;;
3916;SDS011;1973;50.518;7.318;2023-05-16T10:13:21;5.13;;;1.90;;
3916;SDS011;1973;50.518;7.318;2023-05-16T10:15:55;4.07;;;2.30;;
3916;SDS011;1973;50.518;7.318;2023-05-16T10:18:32;5.77;;;2.07;;
3916;SDS011;1973;50.518;7.318;2023-05-16T10:21:09;4.90;;;1.77;;
3916;SDS011;1973;50.518;7.318;2023-05-16T10:23:43;5.60;;;1.90;;
3916;SDS011;1973;50.518;7.318;2023-05-16T10:26:13;5.87;;;1.60;;
3916;SDS011;1973;50.518;7.318;2023-05-16T10:28:42;6.90;;;2.00;;
3916;SDS011;1973;50.518;7.318;2023-05-16T10:31:09;5.57;;;1.90;;
3916;SDS011;1973;50.518;7.318;2023-05-16T10:33:37;7.27;;;1.90;;
3916;SDS011;1973;50.518;7.318;2023-05-16T10:36:04;3.87;;;1.70;;
3916;SDS011;1973;50.518;7.318;2023-05-16T10:38:34;5.73;;;1.73;;
3916;SDS011;1973;50.518;7.318;2023-05-16T10:41:02;6.07;;;2.17;;
3916;SDS011;1973;50.518;7.318;2023-05-16T10:43:30;4.70;;;2.50;;
3916;SDS011;1973;50.518;7.318;2023-05-16T10:46:01;3.23;;;1.80;;
3916;SDS011;1973;50.518;7.318;2023-05-16T10:48:33;6.93;;;2.37;;
3916;SDS011;1973;50.518;7.318;2023-05-16T10:53:52;4.83;;;2.00;;
3916;SDS011;1973;50.518;7.318;2023-05-16T10:56:23;4.27;;;1.60;;
3916;SDS011;1973;50.518;7.318;2023-05-16T10:58:53;8.93;;;2.20;;
3916;SDS011;1973;50.518;7.318;2023-05-16T11:01:23;4.50;;;1.73;;
3916;SDS011;1973;50.518;7.318;2023-05-16T11:06:30;6.13;;;1.70;;
3916;SDS011;1973;50.518;7.318;2023-05-16T11:11:54;5.03;;;1.73;;
3916;SDS011;1973;50.518;7.318;2023-05-16T11:14:26;5.13;;;1.40;;
3916;SDS011;1973;50.518;7.318;2023-05-16T11:17:13;4.70;;;1.57;;
3916;SDS011;1973;50.518;7.318;2023-05-16T11:19:53;6.30;;;2.07;;
3916;SDS011;1973;50.518;7.318;2023-05-16T11:22:24;4.97;;;1.70;;
3916;SDS011;1973;50.518;7.318;2023-05-16T11:27:24;4.00;;;1.40;;
3916;SDS011;1973;50.518;7.318;2023-05-16T11:30:00;6.30;;;2.17;;
3916;SDS011;1973;50.518;7.318;2023-05-16T11:32:29;6.63;;;2.47;;
3916;SDS011;1973;50.518;7.318;2023-05-16T11:34:58;4.50;;;1.67;;
3916;SDS011;1973;50.518;7.318;2023-05-16T11:37:25;4.37;;;1.83;;
3916;SDS011;1973;50.518;7.318;2023-05-16T11:39:51;3.40;;;1.60;;
3916;SDS011;1973;50.518;7.318;2023-05-16T11:42:18;3.57;;;1.43;;
3916;SDS011;1973;50.518;7.318;2023-05-16T11:44:44;4.17;;;1.67;;
3916;SDS011;1973;50.518;7.318;2023-05-16T11:47:11;4.43;;;1.63;;
3916;SDS011;1973;50.518;7.318;2023-05-16T11:49:38;8.53;;;1.63;;
3916;SDS011;1973;50.518;7.318;2023-05-16T11:52:06;7.40;;;1.97;;
3916;SDS011;1973;50.518;7.318;2023-05-16T11:54:34;2.43;;;1.33;;
3916;SDS011;1973;50.518;7.318;2023-05-16T11:57:01;4.87;;;2.43;;
3916;SDS011;1973;50.518;7.318;2023-05-16T11:59:28;4.30;;;1.77;;
3916;SDS011;1973;50.518;7.318;2023-05-16T12:01:54;7.03;;;1.53;;
3916;SDS011;1973;50.518;7.318;2023-05-16T12:04:21;3.57;;;1.40;;
3916;SDS011;1973;50.518;7.318;2023-05-16T12:06:56;4.20;;;1.63;;
3916;SDS011;1973;50.518;7.318;2023-05-16T12:09:24;4.47;;;1.40;;
3916;SDS011;1973;50.518;7.318;2023-05-16T12:11:51;6.70;;;1.60;;
3916;SDS011;1973;50.518;7.318;2023-05-16T12:14:18;8.23;;;2.53;;
3916;SDS011;1973;50.518;7.318;2023-05-16T12:16:45;4.50;;;1.20;;
3916;SDS011;1973;50.518;7.318;2023-05-16T12:19:14;7.20;;;1.60;;
3916;SDS011;1973;50.518;7.318;2023-05-16T12:21:41;3.17;;;1.10;;
3916;SDS011;1973;50.518;7.318;2023-05-16T12:24:08;6.57;;;1.40;;
3916;SDS011;1973;50.518;7.318;2023-05-16T12:26:37;4.30;;;1.50;;
3916;SDS011;1973;50.518;7.318;2023-05-16T12:29:05;3.40;;;1.20;;
3916;SDS011;1973;50.518;7.318;2023-05-16T12:31:34;3.50;;;1.40;;
3916;SDS011;1973;50.518;7.318;2023-05-16T12:34:02;6.27;;;1.47;;
3916;SDS011;1973;50.518;7.318;2023-05-16T12:36:32;3.90;;;1.30;;
3916;SDS011;1973;50.518;7.318;2023-05-16T12:39:00;4.03;;;1.30;;
3916;SDS011;1973;50.518;7.318;2023-05-16T12:41:29;9.43;;;1.77;;
3916;SDS011;1973;50.518;7.318;2023-05-16T12:44:12;4.63;;;1.43;;
3916;SDS011;1973;50.518;7.318;2023-05-16T12:46:42;4.70;;;1.50;;
3916;SDS011;1973;50.518;7.318;2023-05-16T12:49:11;3.20;;;1.40;;
3916;SDS011;1973;50.518;7.318;2023-05-16T12:51:38;4.93;;;1.60;;
3916;SDS011;1973;50.518;7.318;2023-05-16T12:54:06;3.37;;;1.00;;
3916;SDS011;1973;50.518;7.318;2023-05-16T12:56:36;3.67;;;1.20;;
3916;SDS011;1973;50.518;7.318;2023-05-16T12:59:06;6.87;;;1.83;;
3916;SDS011;1973;50.518;7.318;2023-05-16T13:01:34;4.83;;;1.70;;
3916;SDS011;1973;50.518;7.318;2023-05-16T13:04:01;3.87;;;1.60;;
3916;SDS011;1973;50.518;7.318;2023-05-16T13:06:30;4.13;;;1.70;;
3916;SDS011;1973;50.518;7.318;2023-05-16T13:09:14;3.17;;;1.97;;
3916;SDS011;1973;50.518;7.318;2023-05-16T13:11:40;4.97;;;1.53;;
3916;SDS011;1973;50.518;7.318;2023-05-16T13:14:07;3.07;;;1.57;;
3916;SDS011;1973;50.518;7.318;2023-05-16T13:16:33;2.50;;;1.60;;
3916;SDS011;1973;50.518;7.318;2023-05-16T13:19:00;3.57;;;1.73;;
3916;SDS011;1973;50.518;7.318;2023-05-16T13:21:27;3.77;;;2.10;;
3916;SDS011;1973;50.518;7.318;2023-05-16T13:23:57;5.83;;;1.60;;
3916;SDS011;1973;50.518;7.318;2023-05-16T13:26:24;6.47;;;2.00;;
3916;SDS011;1973;50.518;7.318;2023-05-16T13:28:52;4.13;;;2.07;;
3916;SDS011;1973;50.518;7.318;2023-05-16T13:31:20;4.80;;;1.80;;
3916;SDS011;1973;50.518;7.318;2023-05-16T13:33:50;4.23;;;1.43;;
3916;SDS011;1973;50.518;7.318;2023-05-16T13:36:17;5.07;;;1.73;;
3916;SDS011;1973;50.518;7.318;2023-05-16T13:38:43;2.50;;;2.10;;
3916;SDS011;1973;50.518;7.318;2023-05-16T13:41:10;3.80;;;1.90;;
3916;SDS011;1973;50.518;7.318;2023-05-16T13:43:36;3.67;;;1.77;;
3916;SDS011;1973;50.518;7.318;2023-05-16T13:46:02;3.23;;;1.80;;
3916;SDS011;1973;50.518;7.318;2023-05-16T13:48:29;3.17;;;1.90;;
3916;SDS011;1973;50.518;7.318;2023-05-16T13:50:56;4.53;;;2.17;;
3916;SDS011;1973;50.518;7.318;2023-05-16T13:53:22;5.43;;;2.30;;
3916;SDS011;1973;50.518;7.318;2023-05-16T13:55:49;5.30;;;1.90;;
3916;SDS011;1973;50.518;7.318;2023-05-16T13:58:16;6.13;;;2.43;;
3916;SDS011;1973;50.518;7.318;2023-05-16T14:00:42;5.30;;;2.57;;
3916;SDS011;1973;50.518;7.318;2023-05-16T14:03:11;7.20;;;3.33;;
3916;SDS011;1973;50.518;7.318;2023-05-16T14:05:38;5.67;;;2.20;;
3916;SDS011;1973;50.518;7.318;2023-05-16T14:08:04;5.53;;;2.10;;
3916;SDS011;1973;50.518;7.318;2023-05-16T14:10:31;6.13;;;1.80;;
3916;SDS011;1973;50.518;7.318;2023-05-16T14:12:58;3.77;;;1.70;;
3916;SDS011;1973;50.518;7.318;2023-05-16T14:15:24;5.03;;;1.47;;
3916;SDS011;1973;50.518;7.318;2023-05-16T14:17:51;2.97;;;1.60;;
3916;SDS011;1973;50.518;7.318;2023-05-16T14:20:18;3.37;;;1.97;;
3916;SDS011;1973;50.518;7.318;2023-05-16T14:22:45;4.23;;;1.50;;
3916;SDS011;1973;50.518;7.318;2023-05-16T14:25:11;3.67;;;2.30;;
3916;SDS011;1973;50.518;7.318;2023-05-16T14:27:38;7.10;;;2.47;;
3916;SDS011;1973;50.518;7.318;2023-05-16T14:30:04;6.57;;;1.87;;
3916;SDS011;1973;50.518;7.318;2023-05-16T14:32:31;5.27;;;2.00;;
3916;SDS011;1973;50.518;7.318;2023-05-16T14:34:58;3.23;;;1.90;;
3916;SDS011;1973;50.518;7.318;2023-05-16T14:37:24;4.37;;;2.30;;
3916;SDS011;1973;50.518;7.318;2023-05-16T14:39:51;6.23;;;2.17;;
3916;SDS011;1973;50.518;7.318;2023-05-16T14:42:18;4.40;;;3.13;;
3916;SDS011;1973;50.518;7.318;2023-05-16T14:44:44;5.47;;;2.53;;
3916;SDS011;1973;50.518;7.318;2023-05-16T14:47:11;4.80;;;2.60;;
3916;SDS011;1973;50.518;7.318;2023-05-16T14:49:37;5.03;;;1.80;;
3916;SDS011;1973;50.518;7.318;2023-05-16T14:52:04;3.30;;;2.53;;
3916;SDS011;1973;50.518;7.318;2023-05-16T14:54:31;4.43;;;1.67;;
3916;SDS011;1973;50.518;7.318;2023-05-16T14:56:57;3.10;;;1.67;;
3916;SDS011;1973;50.518;7.318;2023-05-16T14:59:25;3.47;;;2.10;;
3916;SDS011;1973;50.518;7.318;2023-05-16T15:01:52;3.97;;;2.43;;
3916;SDS011;1973;50.518;7.318;2023-05-16T15:04:19;3.17;;;1.90;;
3916;SDS011;1973;50.518;7.318;2023-05-16T15:06:45;2.97;;;1.60;;
3916;SDS011;1973;50.518;7.318;2023-05-16T15:09:12;3.77;;;1.67;;
3916;SDS011;1973;50.518;7.318;2023-05-16T15:11:38;6.10;;;2.90;;
3916;SDS011;1973;50.518;7.318;2023-05-16T15:14:05;2.73;;;1.53;;
3916;SDS011;1973;50.518;7.318;2023-05-16T15:16:31;2.60;;;1.30;;
3916;SDS011;1973;50.518;7.318;2023-05-16T15:18:58;4.67;;;1.70;;
3916;SDS011;1973;50.518;7.318;2023-05-16T15:21:24;4.03;;;2.10;;
3916;SDS011;1973;50.518;7.318;2023-05-16T15:23:51;4.07;;;1.63;;
3916;SDS011;1973;50.518;7.318;2023-05-16T15:26:18;2.30;;;1.00;;
3916;SDS011;1973;50.518;7.318;2023-05-16T15:28:44;4.50;;;1.63;;
3916;SDS011;1973;50.518;7.318;2023-05-16T15:31:11;3.50;;;1.37;;
3916;SDS011;1973;50.518;7.318;2023-05-16T15:33:37;3.73;;;1.67;;
3916;SDS011;1973;50.518;7.318;2023-05-16T15:36:04;4.57;;;1.40;;